Station: Roebourne Airport  

  Atmospheric Gas Attenuation - ITU Rec 676-11   ----------------- dB/100km -----------------
Date Time Temp RH % AH g/m3 Dew Point Wind Direction Speed kph Gust kph Barometer mB Rainfall Since 9am 24GHz 47GHz 76GHz 122GHz 134GHz 241GHz
08/05 09:20 25.9 22 5.33 2.6 44 50 1019.4 0 12.2 18.6 24.0 62.3 50.1 170.5
08/05 09:10 25.7 22 5.27 2.4 41 46 1019.3 0 12.1 18.5 23.9 61.9 49.7 168.7
08/05 09:00 25.2 22 5.12 2 39 46 1019.5 0 11.8 18.5 23.5 61.1 48.5 164.5
08/05 08:50 24.9 22 5.04 1.7 43 46 1019.5 0 11.7 18.4 23.4 60.6 47.8 162.2
08/05 08:40 24.7 23 5.21 2.2 35 41 1019.4 0 12.0 18.7 24.0 62.2 49.7 168.6
08/05 08:30 24.5 23 5.15 2 35 46 1019.4 0 11.9 18.6 23.8 61.8 49.2 166.9
08/05 08:20 24 23 5 1.6 28 43 1019.4 0 11.6 18.5 23.5 61.0 47.9 162.5
08/05 08:10 23.5 25 5.29 2.4 26 30 1019.5 0 12.2 19.0 24.5 63.7 51.2 173.9
08/05 08:00 22.8 26 5.28 2.3 19 24 1019.4 0 12.2 19.1 24.7 64.2 51.5 175.0
08/05 07:50 22.1 28 5.47 2.8 17 20 1019.5 0 12.7 19.5 25.5 66.3 54.0 183.5
08/05 07:40 21.6 28 5.31 2.3 17 20 1019.4 0 12.3 19.4 25.2 65.4 52.6 178.6
08/05 07:30 21 29 5.31 2.3 17 22 1019.4 0 12.4 19.5 25.3 65.8 53.0 179.9
08/05 07:20 20.5 30 5.34 2.3 17 20 1019.3 0 12.4 19.7 25.6 66.5 53.6 182.1
08/05 07:10 19.8 31 5.29 2.2 17 17 1019.2 0 12.4 19.8 25.6 66.6 53.5 181.8
08/05 07:00 19.8 31 5.29 2.2 17 20 1019.2 0 12.4 19.8 25.6 66.6 53.5 181.8
08/05 06:50 19.7 31 5.26 2.1 17 19 1019.2 0 12.3 19.7 25.6 66.4 53.3 180.8
08/05 06:40 19.7 30 5.09 1.7 17 19 1019.1 0 11.9 19.5 25.0 64.9 51.4 174.4
08/05 06:30 19.8 30 5.12 1.7 17 19 1018.9 0 12.0 19.5 25.1 65.1 51.7 175.3
08/05 06:20 19.8 30 5.12 1.7 17 17 1018.7 0 12.0 19.5 25.1 65.1 51.7 175.2
08/05 06:10 19.8 30 5.12 1.7 17 17 1018.5 0 12.0 19.5 25.1 65.1 51.7 175.2
08/05 06:00 20 29 5.01 1.4 17 20 1018.4 0 11.8 19.3 24.6 64.0 50.4 170.7
08/05 05:50 20.3 29 5.1 1.7 17 19 1018.1 0 11.9 19.4 24.8 64.5 51.1 173.4
08/05 05:40 20.6 28 5.01 1.5 17 20 1018.2 0 11.8 19.2 24.5 63.5 50.0 169.4
08/05 05:30 20.7 28 5.04 1.6 19 22 1018 0 11.8 19.2 24.5 63.6 50.2 170.3
08/05 05:20 20.9 27 4.92 1.2 19 20 1018 0 11.6 19.0 24.1 62.5 48.9 165.4
08/05 05:10 21 27 4.95 1.3 19 22 1017.8 0 11.6 19.0 24.1 62.6 49.1 166.3
08/05 05:00 21.1 27 4.97 1.4 20 24 1017.7 0 11.7 19.0 24.2 62.7 49.3 166.8
08/05 04:50 21.2 27 5 1.5 20 24 1017.7 0 11.7 19.0 24.2 62.9 49.5 167.8
08/05 04:40 21.2 27 5 1.5 20 22 1017.8 0 11.7 19.0 24.2 62.9 49.5 167.8
08/05 04:30 21.4 26 4.87 1.1 20 26 1017.6 0 11.4 18.8 23.8 61.7 48.0 162.6
08/05 04:20 21.5 26 4.9 1.2 20 22 1017.5 0 11.5 18.8 23.8 61.8 48.3 163.5
08/05 04:10 21.7 26 4.96 1.4 24 26 1017.5 0 11.6 18.9 24.0 62.2 48.8 165.3
08/05 04:00 21.6 26 4.93 1.3 20 26 1017.5 0 11.6 18.9 23.9 62.0 48.5 164.4
08/05 03:50 21.5 26 4.9 1.2 20 24 1017.5 0 11.5 18.8 23.8 61.8 48.3 163.5
08/05 03:40 21.3 27 5.03 1.6 20 24 1017.3 0 11.8 19.0 24.3 63.1 49.7 168.6
08/05 03:30 21.4 27 5.06 1.7 20 26 1017.3 0 11.8 19.1 24.4 63.2 50.0 169.5
08/05 03:20 21.4 27 5.06 1.6 22 26 1017.1 0 11.8 19.1 24.4 63.2 50.0 169.5
08/05 03:10 21.4 27 5.06 1.6 24 26 1017.1 0 11.8 19.1 24.4 63.2 50.0 169.5
08/05 03:00 21.3 27 5.03 1.6 20 26 1017.2 0 11.8 19.0 24.3 63.0 49.7 168.6
08/05 02:50 21 28 5.13 1.8 19 24 1017.1 0 12.0 19.2 24.7 64.1 51.0 172.9
08/05 02:40 20.8 29 5.25 2.1 19 22 1017.1 0 12.2 19.4 25.1 65.3 52.4 177.8
08/05 02:30 20.3 31 5.45 2.6 17 20 1017.2 0 12.7 19.8 25.9 67.4 54.8 186.4
08/05 02:20 20 33 5.7 3.3 17 19 1017.1 0 13.2 20.2 26.9 69.9 57.7 196.6
08/05 02:10 20.4 32 5.66 3.2 17 19 1017.2 0 13.1 20.1 26.6 69.2 57.0 194.1
08/05 02:00 20.6 32 5.73 3.3 17 20 1017.2 0 13.3 20.1 26.8 69.6 57.7 196.3
08/05 01:50 20.9 32 5.83 3.6 19 20 1017.2 0 13.4 20.2 27.0 70.3 58.5 199.4
08/05 01:40 21.2 32 5.93 3.9 17 20 1017.3 0 13.6 20.2 27.2 70.9 59.4 202.5
08/05 01:30 21.7 31 5.91 3.9 20 24 1017.3 0 13.6 20.1 27.0 70.3 58.8 200.6
08/05 01:20 21.5 33 6.22 4.6 19 20 1017.3 0 14.2 20.6 28.1 73.2 62.3 212.9
08/05 01:10 20.7 38 6.84 5.9 19 20 1017.2 0 15.6 21.6 30.4 79.5 69.9 239.3
08/05 01:00 20.1 43 7.47 7.1 17 19 1017.1 0 16.9 22.6 32.9 86.0 77.6 266.5
08/05 00:50 19.9 46 7.9 7.9 17 20 1017.1 0 17.8 23.3 34.5 90.3 82.9 284.9
08/05 00:40 19.7 50 8.49 9 17 17 1017.2 0 19.1 24.2 36.7 96.3 90.2 310.6
08/05 00:30 19.5 57 9.57 10.8 15 17 1017.3 0 21.4 25.9 40.9 107.4 103.9 358.4
08/05 00:20 19.7 61 10.36 12 13 15 1017.4 0 23.0 27.1 43.9 115.4 113.8 393.0
08/05 00:10 20.2 61 10.66 12.4 15 15 1017.4 0 23.6 27.4 44.8 117.8 116.9 404.1
08/05 00:00 20.2 65 11.36 13.4 13 17 1017.5 0 25.1 28.6 47.6 125.3 126.2 436.4
07/05 23:50 20.1 69 11.99 14.2 13 13 1017.5 0 26.4 29.7 50.3 132.4 134.8 466.6
07/05 23:40 20.3 71 12.49 14.9 13 13 1017.4 0 27.5 30.4 52.2 137.6 141.3 489.3
07/05 23:30 20.5 71 12.63 15.1 13 15 1017.2 0 27.8 30.6 52.7 138.8 142.8 494.7
07/05 23:20 21 71 13.01 15.5 13 13 1017.3 0 28.6 31.1 53.9 142.2 147.2 509.8
07/05 23:10 21.3 70 13.05 15.6 13 13 1017.4 0 28.6 31.0 53.9 142.1 147.2 509.8
07/05 23:00 21.3 72 13.42 16 13 13 1017.5 0 29.4 31.7 55.5 146.3 152.3 527.8
07/05 22:50 21 75 13.74 16.4 11 13 1017.5 0 30.1 32.3 57.1 150.5 157.4 545.7
07/05 22:40 20.9 76 13.84 16.5 11 13 1017.5 0 30.3 32.5 57.6 151.9 159.1 551.3
07/05 22:30 21 76 13.92 16.6 11 13 1017.4 0 30.5 32.6 57.8 152.6 160.0 554.5
07/05 22:20 21 77 14.1 16.8 11 13 1017.4 0 30.9 33.0 58.6 154.7 162.6 563.5
07/05 22:10 21.1 77 14.19 16.9 11 11 1017.3 0 31.1 33.1 58.9 155.5 163.6 567.2
07/05 22:00 21.4 77 14.43 17.2 11 13 1017.2 0 31.5 33.4 59.8 157.7 166.4 577.0
07/05 21:50 22 76 14.75 17.6 11 11 1017 0 32.2 33.7 60.7 160.2 169.7 588.4
07/05 21:40 22.4 76 15.09 18 11 13 1017 0 32.9 34.1 61.9 163.4 173.7 602.4
07/05 21:30 22.7 76 15.35 18.3 13 15 1017 0 33.4 34.5 62.8 165.8 176.7 613.2
07/05 21:20 22.9 76 15.53 18.4 13 15 1016.9 0 33.8 34.7 63.4 167.5 178.9 620.6
07/05 21:10 22.7 76 15.35 18.3 13 15 1016.8 0 33.4 34.5 62.8 165.8 176.7 613.1
07/05 21:00 22.5 75 14.98 17.8 13 15 1016.8 0 32.6 33.9 61.3 161.8 171.8 596.0
07/05 20:50 23 75 15.41 18.3 13 13 1016.7 0 33.5 34.5 62.8 165.8 176.9 613.7
07/05 20:40 23.3 74 15.47 18.4 11 11 1016.7 0 33.6 34.4 62.8 165.9 177.0 614.3
07/05 20:30 23.5 73 15.44 18.4 13 15 1016.6 0 33.5 34.3 62.5 165.1 176.1 611.2
07/05 20:20 23.5 73 15.44 18.4 13 13 1016.5 0 33.5 34.3 62.5 165.1 176.1 611.1
07/05 20:10 23.6 72 15.31 18.3 13 13 1016.5 0 33.2 34.0 61.9 163.3 174.0 603.8
07/05 20:00 24.7 68 15.39 18.4 13 15 1016.2 0 33.3 33.7 61.3 161.9 172.6 599.1
07/05 19:50 25.4 68 16.01 19.1 13 15 1016.1 0 34.6 34.5 63.4 167.5 179.8 624.1
07/05 19:40 25.7 66 15.8 18.9 13 17 1015.8 0 34.1 34.0 62.3 164.4 176.1 611.2
07/05 19:30 25.9 64 15.49 18.6 13 17 1015.7 0 33.4 33.4 60.8 160.5 171.3 594.5
07/05 19:20 26.3 61 15.1 18.2 13 15 1015.7 0 32.6 32.6 58.8 155.3 165.0 572.7
07/05 19:10 26 63 15.34 18.4 13 15 1015.5 0 33.1 33.1 60.0 158.6 168.9 586.4
07/05 19:00 26.1 64 15.67 18.8 13 17 1015.5 0 33.8 33.6 61.4 162.1 173.3 601.6
07/05 18:50 26 64 15.58 18.7 13 15 1015.5 0 33.6 33.5 61.1 161.3 172.3 598.0
07/05 18:40 26 63 15.34 18.4 13 15 1015.4 0 33.1 33.1 60.0 158.5 168.9 586.4
07/05 18:30 26.4 60 14.94 18 15 19 1015.2 0 32.2 32.3 58.0 153.3 162.5 564.2
07/05 18:20 26.5 58 14.52 17.8 13 17 1015 0 31.3 31.5 56.2 148.4 156.6 543.6
07/05 18:10 26.7 56 14.18 17.2 19 20 1014.8 0 30.6 30.9 54.7 144.3 151.7 526.4
07/05 18:00 26.7 54 13.67 16.6 19 24 1014.8 0 29.6 30.1 52.6 138.9 145.0 503.0
07/05 17:50 27 54 13.9 16.9 19 20 1014.7 0 30.0 30.3 53.4 140.8 147.4 511.5
07/05 17:40 27.5 51 13.49 16.5 22 24 1014.6 0 29.1 29.5 51.4 135.6 141.2 489.7
07/05 17:30 27.8 50 13.45 16.4 20 30 1014.7 0 29.0 29.3 51.1 134.7 140.1 486.1
07/05 17:20 28.1 46 12.58 15.7 24 28 1014.6 0 27.2 27.9 47.5 125.3 128.7 446.1
07/05 17:10 28.5 44 12.3 15.1 24 30 1014.5 0 26.6 27.3 46.2 121.8 124.6 431.8
07/05 17:00 28.8 40 11.37 14.2 30 37 1014.4 0 24.6 25.9 42.7 112.3 112.9 391.2
07/05 16:50 29.1 40 11.55 14.1 24 30 1014.3 0 25.0 26.1 43.2 113.6 114.6 397.1

Last Refresh: 08-May-2026 11:03:25

Bureau of Meteorology